메인 페이지
METAR-TAF:

METAR-TAF

공항 :

Philip Billard Municipal Airport

토피카, 캔자스, 미국

위도: 39-04-21N, 경도: 095-37-33W, 고도: 268m

현재 날씨관측

예보는 40분 전, 13:53시(UTC)에 발표되었습니다.
남남서11kt, 순간 최대 풍속 21kt
온도 22°C
습도 60%
기압 1015 hPa
시정: 16.1km
맑음

METAR: KTOP 251353Z 21011G21KT 10SM CLR 22/14 A2998 RMK AO2 SLP146 T02170139 $

시각: 09:33 (14:33 UTC)

예보

예보는 52분 전, 13:41시(UTC)에 발표되었습니다.
예보 대상 시간: 25일 14시부터 26일 12시까지 (UTC)
11kt, 순간 최대 풍속 19kt
시정: 10km
고도 2500ft 상공 구름 보통
고도 8000ft 상공 흐림
일시적
25일 14시부터 25일 17시까지 (UTC)
고도 2500ft 상공 구름 많음
25일 1700시부터 (UTC)
남남서10kt
시정: 10km
고도 4500ft 상공 흐림
25일 2200시부터 (UTC)
남남서9kt
시정: 10km
고도 6000ft 상공 구름 많음, 적란운.
시계 내 뇌우
26일 0300시부터 (UTC)
5kt
시정: 9.7km
고도 2500ft 상공 구름 보통
고도 5000ft 상공 흐림, 적란운.
뇌우, 약한비

TAF: KTOP 251341Z 2514/2612 19011G19KT P6SM SCT025 OVC080 TEMPO 2514/2517 BKN025 FM251700 20010KT P6SM OVC045 FM252200 20009KT P6SM VCTS BKN060CB FM260300 17005KT 6SM -TSRA SCT025 OVC050CB

4,000개 이상의 공항 관측 자료 및 예보 (METAR 및 TAF 보고).

지도상에서 검색 가능한 기상관측소가 노란 점과 빨간 점으로 표시되어 있습니다.

기상관측소 명을 보려면 표시 위로 마우스를 이동하세요.

날씨 관측과 예보를 보려면 클릭하세요.

지도 변경 : 확대하려면 엑스 표시가 있는 녹색 버튼, 축소하려면 빼기 표시가 있는 녹색 버튼, 다음 페이지의 지도를 보려면 녹색 화살표를 클릭하세요.


METAR-TAF: